sensor_id;sensor_type;location;lat;lon;timestamp;P1;durP1;ratioP1;P2;durP2;ratioP2
40541;SDS011;49288;52.194;5.676;2022-07-29T00:04:43;6.10;;;2.25;;
40541;SDS011;49288;52.194;5.676;2022-07-29T00:09:47;8.32;;;2.92;;
40541;SDS011;49288;52.194;5.676;2022-07-29T00:14:54;5.78;;;2.40;;
40541;SDS011;49288;52.194;5.676;2022-07-29T00:19:57;7.70;;;2.65;;
40541;SDS011;49288;52.194;5.676;2022-07-29T00:24:59;6.25;;;2.83;;
40541;SDS011;49288;52.194;5.676;2022-07-29T00:30:03;5.25;;;2.55;;
40541;SDS011;49288;52.194;5.676;2022-07-29T00:35:08;6.80;;;2.50;;
40541;SDS011;49288;52.194;5.676;2022-07-29T00:40:29;4.63;;;2.60;;
40541;SDS011;49288;52.194;5.676;2022-07-29T00:45:32;13.50;;;2.83;;
40541;SDS011;49288;52.194;5.676;2022-07-29T00:50:35;5.72;;;2.55;;
40541;SDS011;49288;52.194;5.676;2022-07-29T00:55:39;6.75;;;2.95;;
40541;SDS011;49288;52.194;5.676;2022-07-29T01:00:42;8.95;;;2.47;;
40541;SDS011;49288;52.194;5.676;2022-07-29T01:05:46;14.45;;;2.90;;
40541;SDS011;49288;52.194;5.676;2022-07-29T01:10:52;8.63;;;2.90;;
40541;SDS011;49288;52.194;5.676;2022-07-29T01:15:59;11.48;;;3.70;;
40541;SDS011;49288;52.194;5.676;2022-07-29T01:21:21;9.00;;;3.40;;
40541;SDS011;49288;52.194;5.676;2022-07-29T01:26:47;8.13;;;2.83;;
40541;SDS011;49288;52.194;5.676;2022-07-29T01:37:36;5.60;;;3.10;;
40541;SDS011;49288;52.194;5.676;2022-07-29T01:42:43;7.97;;;3.40;;
40541;SDS011;49288;52.194;5.676;2022-07-29T01:48:00;5.63;;;3.40;;
40541;SDS011;49288;52.194;5.676;2022-07-29T01:53:09;7.25;;;2.90;;
40541;SDS011;49288;52.194;5.676;2022-07-29T01:58:13;8.05;;;3.53;;
40541;SDS011;49288;52.194;5.676;2022-07-29T02:03:20;12.02;;;3.63;;
40541;SDS011;49288;52.194;5.676;2022-07-29T02:08:23;8.93;;;3.35;;
40541;SDS011;49288;52.194;5.676;2022-07-29T02:13:27;5.43;;;3.27;;
40541;SDS011;49288;52.194;5.676;2022-07-29T02:18:31;9.93;;;3.10;;
40541;SDS011;49288;52.194;5.676;2022-07-29T02:23:34;11.32;;;3.60;;
40541;SDS011;49288;52.194;5.676;2022-07-29T02:28:54;7.78;;;3.50;;
40541;SDS011;49288;52.194;5.676;2022-07-29T02:33:58;5.05;;;2.85;;
40541;SDS011;49288;52.194;5.676;2022-07-29T02:39:03;6.68;;;3.17;;
40541;SDS011;49288;52.194;5.676;2022-07-29T02:44:12;5.05;;;2.90;;
40541;SDS011;49288;52.194;5.676;2022-07-29T02:49:22;5.30;;;3.00;;
40541;SDS011;49288;52.194;5.676;2022-07-29T03:00:11;10.20;;;3.08;;
40541;SDS011;49288;52.194;5.676;2022-07-29T03:05:18;7.07;;;3.15;;
40541;SDS011;49288;52.194;5.676;2022-07-29T03:10:22;7.88;;;2.95;;
40541;SDS011;49288;52.194;5.676;2022-07-29T03:15:26;8.23;;;3.47;;
40541;SDS011;49288;52.194;5.676;2022-07-29T03:20:29;8.60;;;3.10;;
40541;SDS011;49288;52.194;5.676;2022-07-29T03:25:32;6.57;;;3.17;;
40541;SDS011;49288;52.194;5.676;2022-07-29T03:30:34;7.13;;;3.10;;
40541;SDS011;49288;52.194;5.676;2022-07-29T03:35:39;9.50;;;3.40;;
40541;SDS011;49288;52.194;5.676;2022-07-29T03:40:44;5.75;;;3.10;;
40541;SDS011;49288;52.194;5.676;2022-07-29T03:45:51;7.28;;;3.00;;
40541;SDS011;49288;52.194;5.676;2022-07-29T03:50:56;9.75;;;3.05;;
40541;SDS011;49288;52.194;5.676;2022-07-29T03:55:59;6.85;;;2.70;;
40541;SDS011;49288;52.194;5.676;2022-07-29T04:01:02;7.32;;;3.33;;
40541;SDS011;49288;52.194;5.676;2022-07-29T04:06:06;7.63;;;3.43;;
40541;SDS011;49288;52.194;5.676;2022-07-29T04:11:09;7.18;;;3.03;;
40541;SDS011;49288;52.194;5.676;2022-07-29T04:16:12;7.03;;;3.55;;
40541;SDS011;49288;52.194;5.676;2022-07-29T04:21:14;7.40;;;3.10;;
40541;SDS011;49288;52.194;5.676;2022-07-29T04:26:17;7.07;;;3.10;;
40541;SDS011;49288;52.194;5.676;2022-07-29T04:31:20;9.70;;;3.40;;
40541;SDS011;49288;52.194;5.676;2022-07-29T04:36:27;9.77;;;3.63;;
40541;SDS011;49288;52.194;5.676;2022-07-29T04:41:31;9.00;;;3.42;;
40541;SDS011;49288;52.194;5.676;2022-07-29T04:46:35;24.85;;;3.40;;
40541;SDS011;49288;52.194;5.676;2022-07-29T04:51:38;11.77;;;3.58;;
40541;SDS011;49288;52.194;5.676;2022-07-29T04:56:41;9.75;;;3.45;;
40541;SDS011;49288;52.194;5.676;2022-07-29T05:01:45;14.27;;;3.72;;
40541;SDS011;49288;52.194;5.676;2022-07-29T05:06:47;5.65;;;3.40;;
40541;SDS011;49288;52.194;5.676;2022-07-29T05:11:51;6.00;;;3.60;;
40541;SDS011;49288;52.194;5.676;2022-07-29T05:16:53;15.77;;;3.55;;
40541;SDS011;49288;52.194;5.676;2022-07-29T05:21:58;5.18;;;3.45;;
40541;SDS011;49288;52.194;5.676;2022-07-29T05:27:03;8.25;;;3.40;;
40541;SDS011;49288;52.194;5.676;2022-07-29T05:32:24;10.32;;;3.30;;
40541;SDS011;49288;52.194;5.676;2022-07-29T05:37:27;11.60;;;4.00;;
40541;SDS011;49288;52.194;5.676;2022-07-29T05:42:29;6.82;;;3.60;;
40541;SDS011;49288;52.194;5.676;2022-07-29T05:47:32;7.25;;;3.47;;
40541;SDS011;49288;52.194;5.676;2022-07-29T05:52:36;9.77;;;3.50;;
40541;SDS011;49288;52.194;5.676;2022-07-29T05:57:57;7.93;;;3.75;;
40541;SDS011;49288;52.194;5.676;2022-07-29T06:02:59;7.05;;;3.83;;
40541;SDS011;49288;52.194;5.676;2022-07-29T06:08:02;8.82;;;3.67;;
40541;SDS011;49288;52.194;5.676;2022-07-29T06:13:07;14.93;;;4.20;;
40541;SDS011;49288;52.194;5.676;2022-07-29T06:18:10;12.63;;;3.70;;
40541;SDS011;49288;52.194;5.676;2022-07-29T06:23:17;10.90;;;4.15;;
40541;SDS011;49288;52.194;5.676;2022-07-29T06:28:21;12.23;;;4.40;;
40541;SDS011;49288;52.194;5.676;2022-07-29T06:33:23;8.63;;;4.40;;
40541;SDS011;49288;52.194;5.676;2022-07-29T06:38:26;8.73;;;4.03;;
40541;SDS011;49288;52.194;5.676;2022-07-29T06:43:35;17.63;;;4.43;;
40541;SDS011;49288;52.194;5.676;2022-07-29T06:48:51;11.32;;;4.40;;
40541;SDS011;49288;52.194;5.676;2022-07-29T06:53:54;8.80;;;4.05;;
40541;SDS011;49288;52.194;5.676;2022-07-29T06:59:04;8.38;;;4.35;;
40541;SDS011;49288;52.194;5.676;2022-07-29T07:04:07;8.30;;;3.95;;
40541;SDS011;49288;52.194;5.676;2022-07-29T07:09:10;12.17;;;4.27;;
40541;SDS011;49288;52.194;5.676;2022-07-29T07:14:13;7.90;;;4.35;;
40541;SDS011;49288;52.194;5.676;2022-07-29T07:19:16;9.03;;;3.90;;
40541;SDS011;49288;52.194;5.676;2022-07-29T07:29:23;14.15;;;4.10;;
40541;SDS011;49288;52.194;5.676;2022-07-29T07:34:26;12.00;;;3.95;;
40541;SDS011;49288;52.194;5.676;2022-07-29T07:44:35;9.00;;;3.73;;
40541;SDS011;49288;52.194;5.676;2022-07-29T07:49:58;8.98;;;3.80;;
40541;SDS011;49288;52.194;5.676;2022-07-29T07:55:02;12.00;;;3.37;;
40541;SDS011;49288;52.194;5.676;2022-07-29T08:00:05;6.28;;;3.35;;
40541;SDS011;49288;52.194;5.676;2022-07-29T08:05:13;7.05;;;3.30;;
40541;SDS011;49288;52.194;5.676;2022-07-29T08:10:19;9.52;;;3.20;;
40541;SDS011;49288;52.194;5.676;2022-07-29T08:15:48;16.17;;;4.22;;
40541;SDS011;49288;52.194;5.676;2022-07-29T08:21:00;13.25;;;3.38;;
40541;SDS011;49288;52.194;5.676;2022-07-29T08:26:02;7.00;;;3.20;;
40541;SDS011;49288;52.194;5.676;2022-07-29T08:31:06;10.33;;;3.20;;
40541;SDS011;49288;52.194;5.676;2022-07-29T08:36:08;8.55;;;3.65;;
40541;SDS011;49288;52.194;5.676;2022-07-29T08:41:11;9.70;;;3.22;;
40541;SDS011;49288;52.194;5.676;2022-07-29T08:46:14;6.30;;;2.80;;
40541;SDS011;49288;52.194;5.676;2022-07-29T08:51:18;8.65;;;3.30;;
40541;SDS011;49288;52.194;5.676;2022-07-29T08:56:21;10.32;;;3.38;;
40541;SDS011;49288;52.194;5.676;2022-07-29T09:01:25;9.70;;;2.90;;
40541;SDS011;49288;52.194;5.676;2022-07-29T09:06:39;9.35;;;3.05;;
40541;SDS011;49288;52.194;5.676;2022-07-29T09:11:45;7.32;;;3.15;;
40541;SDS011;49288;52.194;5.676;2022-07-29T09:16:50;8.88;;;3.10;;
40541;SDS011;49288;52.194;5.676;2022-07-29T09:21:57;6.78;;;2.92;;
40541;SDS011;49288;52.194;5.676;2022-07-29T09:27:08;14.02;;;3.28;;
40541;SDS011;49288;52.194;5.676;2022-07-29T09:32:32;7.72;;;2.88;;
40541;SDS011;49288;52.194;5.676;2022-07-29T09:37:35;9.98;;;3.15;;
40541;SDS011;49288;52.194;5.676;2022-07-29T09:42:38;6.13;;;3.05;;
40541;SDS011;49288;52.194;5.676;2022-07-29T09:47:44;12.20;;;3.00;;
40541;SDS011;49288;52.194;5.676;2022-07-29T09:52:50;4.93;;;2.70;;
40541;SDS011;49288;52.194;5.676;2022-07-29T09:57:54;10.57;;;2.83;;
40541;SDS011;49288;52.194;5.676;2022-07-29T10:03:17;9.00;;;2.72;;
40541;SDS011;49288;52.194;5.676;2022-07-29T10:08:25;16.08;;;3.70;;
40541;SDS011;49288;52.194;5.676;2022-07-29T10:13:28;10.82;;;3.60;;
40541;SDS011;49288;52.194;5.676;2022-07-29T10:18:31;11.13;;;3.13;;
40541;SDS011;49288;52.194;5.676;2022-07-29T10:23:34;9.60;;;3.30;;
40541;SDS011;49288;52.194;5.676;2022-07-29T10:28:48;10.63;;;3.20;;
40541;SDS011;49288;52.194;5.676;2022-07-29T10:39:52;9.95;;;3.35;;
40541;SDS011;49288;52.194;5.676;2022-07-29T10:45:02;15.73;;;3.40;;
40541;SDS011;49288;52.194;5.676;2022-07-29T10:50:08;10.82;;;3.83;;
40541;SDS011;49288;52.194;5.676;2022-07-29T10:55:39;9.18;;;3.42;;
40541;SDS011;49288;52.194;5.676;2022-07-29T11:00:46;9.32;;;3.03;;
40541;SDS011;49288;52.194;5.676;2022-07-29T11:05:54;8.15;;;3.05;;
40541;SDS011;49288;52.194;5.676;2022-07-29T11:16:23;8.70;;;3.03;;
40541;SDS011;49288;52.194;5.676;2022-07-29T11:21:34;10.10;;;3.25;;
40541;SDS011;49288;52.194;5.676;2022-07-29T11:27:08;11.73;;;3.75;;
40541;SDS011;49288;52.194;5.676;2022-07-29T11:37:23;14.33;;;3.80;;
40541;SDS011;49288;52.194;5.676;2022-07-29T11:42:47;12.25;;;4.07;;
40541;SDS011;49288;52.194;5.676;2022-07-29T11:47:54;7.95;;;3.70;;
40541;SDS011;49288;52.194;5.676;2022-07-29T11:53:20;7.05;;;3.35;;
40541;SDS011;49288;52.194;5.676;2022-07-29T11:58:25;24.48;;;3.97;;
40541;SDS011;49288;52.194;5.676;2022-07-29T12:03:29;9.95;;;3.97;;
40541;SDS011;49288;52.194;5.676;2022-07-29T12:08:40;8.93;;;3.75;;
40541;SDS011;49288;52.194;5.676;2022-07-29T12:13:49;10.35;;;3.30;;
40541;SDS011;49288;52.194;5.676;2022-07-29T12:18:59;11.23;;;4.18;;
40541;SDS011;49288;52.194;5.676;2022-07-29T12:24:05;10.63;;;4.03;;
40541;SDS011;49288;52.194;5.676;2022-07-29T12:29:14;16.77;;;4.03;;
40541;SDS011;49288;52.194;5.676;2022-07-29T12:34:35;12.90;;;3.50;;
40541;SDS011;49288;52.194;5.676;2022-07-29T12:39:38;14.07;;;3.60;;
40541;SDS011;49288;52.194;5.676;2022-07-29T12:44:48;11.88;;;3.22;;
40541;SDS011;49288;52.194;5.676;2022-07-29T12:49:53;11.57;;;2.90;;
40541;SDS011;49288;52.194;5.676;2022-07-29T12:55:38;7.38;;;2.90;;
40541;SDS011;49288;52.194;5.676;2022-07-29T13:00:42;15.57;;;3.70;;
40541;SDS011;49288;52.194;5.676;2022-07-29T13:05:48;11.32;;;3.70;;
40541;SDS011;49288;52.194;5.676;2022-07-29T13:10:52;10.05;;;3.00;;
40541;SDS011;49288;52.194;5.676;2022-07-29T13:16:05;9.15;;;3.75;;
40541;SDS011;49288;52.194;5.676;2022-07-29T13:21:10;11.93;;;3.58;;
40541;SDS011;49288;52.194;5.676;2022-07-29T13:26:14;6.32;;;3.55;;
40541;SDS011;49288;52.194;5.676;2022-07-29T13:31:20;14.93;;;3.88;;
40541;SDS011;49288;52.194;5.676;2022-07-29T13:36:24;9.32;;;3.15;;
40541;SDS011;49288;52.194;5.676;2022-07-29T13:41:51;13.55;;;3.67;;
40541;SDS011;49288;52.194;5.676;2022-07-29T13:46:54;11.20;;;4.30;;
40541;SDS011;49288;52.194;5.676;2022-07-29T13:51:59;12.43;;;4.43;;
40541;SDS011;49288;52.194;5.676;2022-07-29T13:57:02;14.25;;;4.03;;
40541;SDS011;49288;52.194;5.676;2022-07-29T14:02:05;13.63;;;4.57;;
40541;SDS011;49288;52.194;5.676;2022-07-29T14:07:08;9.18;;;3.70;;
40541;SDS011;49288;52.194;5.676;2022-07-29T14:12:17;6.10;;;3.40;;
40541;SDS011;49288;52.194;5.676;2022-07-29T14:17:19;15.65;;;3.55;;
40541;SDS011;49288;52.194;5.676;2022-07-29T14:22:22;12.23;;;3.70;;
40541;SDS011;49288;52.194;5.676;2022-07-29T14:27:38;14.95;;;3.25;;
40541;SDS011;49288;52.194;5.676;2022-07-29T14:32:43;6.00;;;3.30;;
40541;SDS011;49288;52.194;5.676;2022-07-29T14:37:46;9.23;;;3.30;;
40541;SDS011;49288;52.194;5.676;2022-07-29T14:42:49;7.50;;;2.97;;
40541;SDS011;49288;52.194;5.676;2022-07-29T14:47:52;7.88;;;3.20;;
40541;SDS011;49288;52.194;5.676;2022-07-29T14:53:00;7.70;;;3.20;;
40541;SDS011;49288;52.194;5.676;2022-07-29T14:58:03;13.85;;;3.88;;
40541;SDS011;49288;52.194;5.676;2022-07-29T15:03:14;11.57;;;3.35;;
40541;SDS011;49288;52.194;5.676;2022-07-29T15:08:25;11.68;;;3.58;;
40541;SDS011;49288;52.194;5.676;2022-07-29T15:13:30;8.50;;;3.40;;
40541;SDS011;49288;52.194;5.676;2022-07-29T15:18:35;8.90;;;3.20;;
40541;SDS011;49288;52.194;5.676;2022-07-29T15:23:40;8.55;;;3.20;;
40541;SDS011;49288;52.194;5.676;2022-07-29T15:28:43;7.30;;;2.90;;
40541;SDS011;49288;52.194;5.676;2022-07-29T15:33:45;8.98;;;3.45;;
40541;SDS011;49288;52.194;5.676;2022-07-29T15:38:48;11.55;;;3.15;;
40541;SDS011;49288;52.194;5.676;2022-07-29T15:43:53;13.15;;;2.97;;
40541;SDS011;49288;52.194;5.676;2022-07-29T15:48:55;12.25;;;3.05;;
40541;SDS011;49288;52.194;5.676;2022-07-29T15:54:00;7.65;;;2.90;;
40541;SDS011;49288;52.194;5.676;2022-07-29T15:59:03;18.33;;;3.40;;
40541;SDS011;49288;52.194;5.676;2022-07-29T16:04:06;9.35;;;3.30;;
40541;SDS011;49288;52.194;5.676;2022-07-29T16:09:09;12.00;;;3.50;;
40541;SDS011;49288;52.194;5.676;2022-07-29T16:14:12;14.15;;;3.30;;
40541;SDS011;49288;52.194;5.676;2022-07-29T16:19:14;13.98;;;3.42;;
40541;SDS011;49288;52.194;5.676;2022-07-29T16:24:17;14.65;;;3.78;;
40541;SDS011;49288;52.194;5.676;2022-07-29T16:29:20;9.90;;;3.80;;
40541;SDS011;49288;52.194;5.676;2022-07-29T16:34:22;9.23;;;3.88;;
40541;SDS011;49288;52.194;5.676;2022-07-29T16:39:25;16.30;;;4.07;;
40541;SDS011;49288;52.194;5.676;2022-07-29T16:44:27;14.88;;;3.92;;
40541;SDS011;49288;52.194;5.676;2022-07-29T16:49:30;11.23;;;3.90;;
40541;SDS011;49288;52.194;5.676;2022-07-29T16:54:33;14.38;;;3.90;;
40541;SDS011;49288;52.194;5.676;2022-07-29T16:59:36;16.67;;;4.10;;
40541;SDS011;49288;52.194;5.676;2022-07-29T17:04:44;9.77;;;3.83;;
40541;SDS011;49288;52.194;5.676;2022-07-29T17:09:47;14.02;;;4.35;;
40541;SDS011;49288;52.194;5.676;2022-07-29T17:14:56;17.65;;;4.40;;
40541;SDS011;49288;52.194;5.676;2022-07-29T17:19:59;13.05;;;3.92;;
40541;SDS011;49288;52.194;5.676;2022-07-29T17:25:02;11.60;;;3.55;;
40541;SDS011;49288;52.194;5.676;2022-07-29T17:30:07;8.05;;;3.70;;
40541;SDS011;49288;52.194;5.676;2022-07-29T17:35:10;13.13;;;3.90;;
40541;SDS011;49288;52.194;5.676;2022-07-29T17:40:31;9.63;;;3.38;;
40541;SDS011;49288;52.194;5.676;2022-07-29T17:45:33;9.35;;;3.60;;
40541;SDS011;49288;52.194;5.676;2022-07-29T17:50:51;11.55;;;3.17;;
40541;SDS011;49288;52.194;5.676;2022-07-29T17:55:54;10.85;;;3.00;;
40541;SDS011;49288;52.194;5.676;2022-07-29T18:00:59;7.18;;;3.38;;
40541;SDS011;49288;52.194;5.676;2022-07-29T18:06:02;11.82;;;3.30;;
40541;SDS011;49288;52.194;5.676;2022-07-29T18:11:05;12.90;;;3.70;;
40541;SDS011;49288;52.194;5.676;2022-07-29T18:16:17;14.65;;;3.17;;
40541;SDS011;49288;52.194;5.676;2022-07-29T18:21:20;14.13;;;3.85;;
40541;SDS011;49288;52.194;5.676;2022-07-29T18:26:44;11.18;;;3.00;;
40541;SDS011;49288;52.194;5.676;2022-07-29T18:31:49;7.88;;;3.10;;
40541;SDS011;49288;52.194;5.676;2022-07-29T18:36:51;5.47;;;2.90;;
40541;SDS011;49288;52.194;5.676;2022-07-29T18:41:54;11.80;;;3.22;;
40541;SDS011;49288;52.194;5.676;2022-07-29T18:46:58;8.35;;;3.42;;
40541;SDS011;49288;52.194;5.676;2022-07-29T18:52:03;10.25;;;3.30;;
40541;SDS011;49288;52.194;5.676;2022-07-29T18:57:07;8.13;;;3.25;;
40541;SDS011;49288;52.194;5.676;2022-07-29T19:02:30;6.45;;;3.25;;
40541;SDS011;49288;52.194;5.676;2022-07-29T19:07:33;8.80;;;3.22;;
40541;SDS011;49288;52.194;5.676;2022-07-29T19:12:36;5.88;;;3.08;;
40541;SDS011;49288;52.194;5.676;2022-07-29T19:17:39;13.38;;;3.60;;
40541;SDS011;49288;52.194;5.676;2022-07-29T19:22:41;8.07;;;3.47;;
40541;SDS011;49288;52.194;5.676;2022-07-29T19:27:44;5.80;;;3.10;;
40541;SDS011;49288;52.194;5.676;2022-07-29T19:32:48;8.80;;;3.00;;
40541;SDS011;49288;52.194;5.676;2022-07-29T19:37:53;8.52;;;3.08;;
40541;SDS011;49288;52.194;5.676;2022-07-29T19:42:56;8.13;;;3.42;;
40541;SDS011;49288;52.194;5.676;2022-07-29T19:47:59;7.93;;;3.13;;
40541;SDS011;49288;52.194;5.676;2022-07-29T19:53:04;13.23;;;3.30;;
40541;SDS011;49288;52.194;5.676;2022-07-29T19:58:07;10.82;;;3.83;;
40541;SDS011;49288;52.194;5.676;2022-07-29T20:03:10;7.32;;;3.30;;
40541;SDS011;49288;52.194;5.676;2022-07-29T20:08:14;8.60;;;3.47;;
40541;SDS011;49288;52.194;5.676;2022-07-29T20:13:16;7.10;;;3.80;;
40541;SDS011;49288;52.194;5.676;2022-07-29T20:18:19;8.52;;;3.97;;
40541;SDS011;49288;52.194;5.676;2022-07-29T20:23:22;6.63;;;3.65;;
40541;SDS011;49288;52.194;5.676;2022-07-29T20:28:24;5.63;;;3.35;;
40541;SDS011;49288;52.194;5.676;2022-07-29T20:33:27;8.10;;;3.70;;
40541;SDS011;49288;52.194;5.676;2022-07-29T20:38:30;9.77;;;3.58;;
40541;SDS011;49288;52.194;5.676;2022-07-29T20:43:32;7.93;;;4.20;;
40541;SDS011;49288;52.194;5.676;2022-07-29T20:48:40;7.95;;;3.92;;
40541;SDS011;49288;52.194;5.676;2022-07-29T20:53:44;15.65;;;4.30;;
40541;SDS011;49288;52.194;5.676;2022-07-29T20:58:46;6.38;;;4.00;;
40541;SDS011;49288;52.194;5.676;2022-07-29T21:03:49;14.02;;;4.53;;
40541;SDS011;49288;52.194;5.676;2022-07-29T21:08:52;9.63;;;4.07;;
40541;SDS011;49288;52.194;5.676;2022-07-29T21:18:59;7.45;;;4.20;;
40541;SDS011;49288;52.194;5.676;2022-07-29T21:24:03;10.98;;;4.80;;
40541;SDS011;49288;52.194;5.676;2022-07-29T21:29:07;10.57;;;4.72;;
40541;SDS011;49288;52.194;5.676;2022-07-29T21:34:10;11.48;;;4.30;;
40541;SDS011;49288;52.194;5.676;2022-07-29T21:39:13;12.27;;;4.40;;
40541;SDS011;49288;52.194;5.676;2022-07-29T21:44:16;10.75;;;4.60;;
40541;SDS011;49288;52.194;5.676;2022-07-29T21:49:19;9.83;;;4.40;;
40541;SDS011;49288;52.194;5.676;2022-07-29T21:54:21;11.05;;;5.50;;
40541;SDS011;49288;52.194;5.676;2022-07-29T21:59:25;22.83;;;5.40;;
40541;SDS011;49288;52.194;5.676;2022-07-29T22:04:28;11.43;;;4.93;;
40541;SDS011;49288;52.194;5.676;2022-07-29T22:09:31;13.60;;;5.50;;
40541;SDS011;49288;52.194;5.676;2022-07-29T22:14:33;13.13;;;5.38;;
40541;SDS011;49288;52.194;5.676;2022-07-29T22:19:36;13.18;;;5.13;;
40541;SDS011;49288;52.194;5.676;2022-07-29T22:24:38;10.02;;;4.88;;
40541;SDS011;49288;52.194;5.676;2022-07-29T22:29:41;9.38;;;5.10;;
40541;SDS011;49288;52.194;5.676;2022-07-29T22:34:44;9.10;;;4.90;;
40541;SDS011;49288;52.194;5.676;2022-07-29T22:39:47;9.20;;;5.43;;
40541;SDS011;49288;52.194;5.676;2022-07-29T22:44:50;8.90;;;4.90;;
40541;SDS011;49288;52.194;5.676;2022-07-29T22:49:52;7.47;;;4.47;;
40541;SDS011;49288;52.194;5.676;2022-07-29T22:54:56;11.18;;;5.22;;
40541;SDS011;49288;52.194;5.676;2022-07-29T22:59:58;10.82;;;5.38;;
40541;SDS011;49288;52.194;5.676;2022-07-29T23:05:04;12.43;;;6.25;;
40541;SDS011;49288;52.194;5.676;2022-07-29T23:10:07;13.35;;;5.72;;
40541;SDS011;49288;52.194;5.676;2022-07-29T23:15:10;11.23;;;5.35;;
40541;SDS011;49288;52.194;5.676;2022-07-29T23:20:13;14.93;;;5.80;;
40541;SDS011;49288;52.194;5.676;2022-07-29T23:25:17;8.77;;;5.30;;
40541;SDS011;49288;52.194;5.676;2022-07-29T23:30:19;10.82;;;5.68;;
40541;SDS011;49288;52.194;5.676;2022-07-29T23:35:22;9.45;;;5.50;;
40541;SDS011;49288;52.194;5.676;2022-07-29T23:40:24;12.05;;;5.65;;
40541;SDS011;49288;52.194;5.676;2022-07-29T23:45:27;11.40;;;5.38;;
40541;SDS011;49288;52.194;5.676;2022-07-29T23:50:45;11.48;;;5.90;;
40541;SDS011;49288;52.194;5.676;2022-07-29T23:55:47;13.60;;;5.80;;
